createdAt,value
2022-12-03T00:01:13.481Z,4.10
2022-12-03T00:03:40.104Z,4.20
2022-12-03T00:06:06.981Z,4.30
2022-12-03T00:08:33.464Z,4.20
2022-12-03T00:10:59.926Z,4.20
2022-12-03T00:13:26.389Z,4.20
2022-12-03T00:15:52.918Z,4.20
2022-12-03T00:18:19.411Z,4.10
2022-12-03T00:20:45.881Z,4.10
2022-12-03T00:23:12.322Z,4.10
2022-12-03T00:25:38.798Z,4.10
2022-12-03T00:28:05.247Z,4.10
2022-12-03T00:30:31.728Z,4.10
2022-12-03T00:32:58.165Z,4.10
2022-12-03T00:35:24.645Z,4.10
2022-12-03T00:37:51.126Z,4.10
2022-12-03T00:40:17.689Z,4.00
2022-12-03T00:42:44.147Z,4.00
2022-12-03T00:45:10.881Z,4.00
2022-12-03T00:47:37.372Z,4.10
2022-12-03T00:50:05.203Z,4.10
2022-12-03T00:52:31.691Z,4.10
2022-12-03T00:54:58.140Z,4.10
2022-12-03T00:57:24.606Z,4.10
2022-12-03T00:59:51.045Z,4.00
2022-12-03T01:02:17.568Z,4.10
2022-12-03T01:04:44.156Z,4.00
2022-12-03T01:07:10.625Z,4.00
2022-12-03T01:09:37.099Z,4.10
2022-12-03T01:12:04.039Z,4.10
2022-12-03T01:14:30.502Z,4.10
2022-12-03T01:16:56.952Z,4.10
2022-12-03T01:19:23.685Z,4.10
2022-12-03T01:21:51.518Z,4.10
2022-12-03T01:24:19.226Z,4.00
2022-12-03T01:26:46.010Z,4.10
2022-12-03T01:29:13.013Z,4.10
2022-12-03T01:31:57.778Z,4.10
2022-12-03T01:34:24.243Z,4.10
2022-12-03T01:36:51.729Z,4.10
2022-12-03T01:39:18.720Z,4.10
2022-12-03T01:41:48.333Z,4.10
2022-12-03T01:44:29.659Z,4.20
2022-12-03T01:47:00.402Z,4.10
2022-12-03T01:49:46.823Z,4.10
2022-12-03T01:52:17.375Z,4.10
2022-12-03T01:55:00.986Z,4.10
2022-12-03T01:57:50.692Z,4.10
2022-12-03T02:00:22.430Z,4.00
2022-12-03T02:02:59.083Z,4.20
2022-12-03T02:05:32.375Z,4.20
2022-12-03T02:08:00.033Z,4.10
2022-12-03T02:10:31.738Z,4.20
2022-12-03T02:13:04.166Z,4.10
2022-12-03T02:15:30.664Z,4.10
2022-12-03T02:17:57.527Z,4.10
2022-12-03T02:20:24.125Z,4.00
2022-12-03T02:25:56.676Z,4.00
2022-12-03T02:28:23.264Z,4.10
2022-12-03T02:30:49.753Z,4.00
2022-12-03T02:33:16.284Z,4.00
2022-12-03T02:35:43.235Z,4.10
2022-12-03T02:38:25.071Z,4.10
2022-12-03T02:40:57.432Z,4.10
2022-12-03T02:43:24.799Z,4.00
2022-12-03T02:45:58.639Z,4.00
2022-12-03T02:48:31.699Z,4.10
2022-12-03T02:51:03.524Z,4.00
2022-12-03T02:53:41.493Z,4.10
2022-12-03T02:56:13.021Z,4.10
2022-12-03T02:58:42.743Z,4.00
2022-12-03T03:01:10.178Z,4.00
2022-12-03T03:03:38.554Z,4.00
2022-12-03T03:06:08.051Z,3.90
2022-12-03T03:08:37.258Z,3.90
2022-12-03T03:11:04.217Z,3.80
2022-12-03T03:13:33.754Z,3.90
2022-12-03T03:16:03.263Z,3.90
2022-12-03T03:18:30.504Z,4.00
2022-12-03T03:20:57.004Z,4.00
2022-12-03T03:23:24.442Z,4.00
2022-12-03T03:26:06.876Z,4.00
2022-12-03T03:28:41.335Z,4.00
2022-12-03T03:31:11.005Z,4.00
2022-12-03T03:33:41.196Z,4.00
2022-12-03T03:36:09.200Z,4.00
2022-12-03T03:38:37.551Z,4.00
2022-12-03T03:41:05.965Z,4.00
2022-12-03T03:43:36.229Z,4.00
2022-12-03T03:46:06.032Z,4.10
2022-12-03T03:48:34.637Z,4.00
2022-12-03T03:51:08.044Z,4.00
2022-12-03T03:53:38.194Z,4.10
2022-12-03T03:56:05.659Z,4.10
2022-12-03T03:58:32.277Z,4.10
2022-12-03T04:01:00.110Z,4.10
2022-12-03T04:03:28.699Z,4.10
2022-12-03T04:05:55.208Z,4.10
2022-12-03T04:08:21.649Z,4.20
2022-12-03T04:11:06.486Z,4.20
2022-12-03T04:13:32.966Z,4.20
2022-12-03T04:15:59.435Z,4.20
2022-12-03T04:18:43.870Z,4.30
2022-12-03T04:21:37.657Z,4.20
2022-12-03T04:24:06.261Z,4.20
2022-12-03T04:26:51.050Z,4.30
2022-12-03T04:29:18.184Z,4.30
2022-12-03T04:32:02.868Z,4.20
2022-12-03T04:34:47.742Z,4.20
2022-12-03T04:37:14.425Z,4.20
2022-12-03T04:39:40.961Z,4.20
2022-12-03T04:42:07.909Z,4.20
2022-12-03T04:44:37.254Z,4.20
2022-12-03T04:47:13.757Z,4.20
2022-12-03T04:49:47.032Z,4.20
2022-12-03T04:52:16.450Z,4.30
2022-12-03T04:54:43.156Z,4.20
2022-12-03T04:57:11.219Z,4.20
2022-12-03T04:59:38.651Z,4.20
2022-12-03T05:02:06.408Z,4.30
2022-12-03T05:04:33.205Z,4.30
2022-12-03T05:06:59.690Z,4.20
2022-12-03T05:09:26.177Z,4.20
2022-12-03T05:11:52.630Z,4.20
2022-12-03T05:14:19.084Z,4.10
2022-12-03T05:16:45.603Z,4.10
2022-12-03T05:19:12.158Z,4.10
2022-12-03T05:21:38.634Z,4.10
2022-12-03T05:24:05.805Z,4.20
2022-12-03T05:26:32.286Z,4.10
2022-12-03T05:28:58.757Z,4.10
2022-12-03T05:31:25.286Z,4.10
2022-12-03T05:33:51.749Z,4.10
2022-12-03T05:36:18.248Z,4.10
2022-12-03T05:38:44.714Z,4.20
2022-12-03T05:41:29.536Z,4.20
2022-12-03T05:43:56.028Z,4.10
2022-12-03T05:46:22.577Z,4.10
2022-12-03T05:48:49.117Z,4.10
2022-12-03T05:51:15.575Z,4.10
2022-12-03T05:53:42.037Z,4.10
2022-12-03T05:56:08.526Z,4.20
2022-12-03T05:58:35.031Z,4.20
2022-12-03T06:01:01.486Z,4.10
2022-12-03T06:03:28.073Z,4.10
2022-12-03T06:05:54.636Z,4.10
2022-12-03T06:08:21.100Z,4.10
2022-12-03T06:10:47.547Z,4.10
2022-12-03T06:13:14.020Z,4.20
2022-12-03T06:15:44.011Z,4.20
2022-12-03T06:18:11.174Z,4.20
2022-12-03T06:20:37.661Z,4.20
2022-12-03T06:23:04.137Z,4.10
2022-12-03T06:25:30.581Z,4.10
2022-12-03T06:27:57.048Z,4.10
2022-12-03T06:30:23.505Z,4.10
2022-12-03T06:32:49.980Z,4.20
2022-12-03T06:35:16.500Z,4.10
2022-12-03T06:37:42.980Z,4.20
2022-12-03T06:40:10.447Z,4.20
2022-12-03T06:42:36.928Z,4.20
2022-12-03T06:45:04.014Z,4.10
2022-12-03T06:47:30.465Z,4.20
2022-12-03T06:49:56.942Z,4.20
2022-12-03T06:52:23.380Z,4.20
2022-12-03T06:54:49.824Z,4.30
2022-12-03T06:57:16.306Z,4.40
2022-12-03T06:59:42.782Z,4.30
2022-12-03T07:02:11.647Z,4.30
2022-12-03T07:04:42.034Z,4.30
2022-12-03T07:07:11.190Z,4.30
2022-12-03T07:09:37.663Z,4.40
2022-12-03T07:12:04.508Z,4.40
2022-12-03T07:14:30.970Z,4.30
2022-12-03T07:16:57.443Z,4.30
2022-12-03T07:19:29.082Z,4.30
2022-12-03T07:21:58.721Z,4.30
2022-12-03T07:24:25.203Z,4.40
2022-12-03T07:26:52.049Z,4.40
2022-12-03T07:29:18.511Z,4.50
2022-12-03T07:31:45.011Z,4.50
2022-12-03T07:34:11.526Z,4.50
2022-12-03T07:36:38.000Z,4.50
2022-12-03T07:39:04.651Z,4.50
2022-12-03T07:41:31.135Z,4.40
2022-12-03T07:43:57.599Z,4.50
2022-12-03T07:46:24.154Z,4.50
2022-12-03T07:48:50.615Z,4.60
2022-12-03T07:51:17.102Z,4.60
2022-12-03T07:53:43.588Z,4.60
2022-12-03T07:56:10.276Z,4.50
2022-12-03T07:58:36.749Z,4.60
2022-12-03T08:01:03.308Z,4.70
2022-12-03T08:03:29.911Z,4.60
2022-12-03T08:05:56.358Z,4.70
2022-12-03T08:08:22.862Z,4.70
2022-12-03T08:10:49.329Z,4.70
2022-12-03T08:13:18.197Z,4.70
2022-12-03T08:15:44.823Z,4.80
2022-12-03T08:18:20.410Z,4.80
2022-12-03T08:20:49.796Z,4.80
2022-12-03T08:23:22.812Z,4.70
2022-12-03T08:25:52.147Z,4.80
2022-12-03T08:28:25.867Z,4.80
2022-12-03T08:31:56.424Z,4.90
2022-12-03T08:34:34.908Z,4.90
2022-12-03T08:37:17.419Z,4.90
2022-12-03T08:39:49.265Z,4.90
2022-12-03T08:42:40.986Z,4.90
2022-12-03T08:45:39.513Z,5.00
2022-12-03T08:48:33.307Z,5.00
2022-12-03T08:51:29.837Z,4.90
2022-12-03T08:54:14.095Z,4.90
2022-12-03T08:56:41.443Z,4.90
2022-12-03T08:59:31.729Z,5.00
2022-12-03T09:02:01.216Z,5.00
2022-12-03T09:04:51.159Z,4.90
2022-12-03T09:07:17.682Z,5.00
2022-12-03T09:09:44.151Z,5.00
2022-12-03T09:12:10.634Z,5.00
2022-12-03T09:14:37.073Z,5.10
2022-12-03T09:17:03.632Z,5.20
2022-12-03T09:19:32.982Z,5.30
2022-12-03T09:21:59.449Z,5.40
2022-12-03T09:24:25.939Z,5.60
2022-12-03T09:26:52.388Z,5.60
2022-12-03T09:29:18.856Z,5.50
2022-12-03T09:31:45.394Z,5.40
2022-12-03T09:34:12.117Z,5.50
2022-12-03T09:36:38.562Z,5.50
2022-12-03T09:39:05.090Z,5.60
2022-12-03T09:41:31.562Z,5.60
2022-12-03T09:44:05.880Z,5.50
2022-12-03T09:46:36.730Z,5.40
2022-12-03T09:49:12.318Z,5.50
2022-12-03T09:51:40.582Z,5.60
2022-12-03T09:54:07.389Z,5.60
2022-12-03T09:56:37.255Z,5.60
2022-12-03T09:59:13.343Z,5.60
2022-12-03T10:01:39.979Z,5.70
2022-12-03T10:04:07.308Z,5.70
2022-12-03T10:06:34.079Z,5.60
2022-12-03T10:09:00.667Z,5.60
2022-12-03T10:11:29.437Z,5.50
2022-12-03T10:13:57.870Z,5.60
2022-12-03T10:16:25.421Z,5.50
2022-12-03T10:18:59.545Z,5.50
2022-12-03T10:21:33.721Z,5.60
2022-12-03T10:24:29.534Z,5.50
2022-12-03T10:26:59.824Z,5.40
2022-12-03T10:29:36.458Z,5.50
2022-12-03T10:32:08.145Z,5.40
2022-12-03T10:34:39.198Z,5.40
2022-12-03T10:37:18.561Z,5.40
2022-12-03T10:40:10.963Z,5.40
2022-12-03T10:42:40.197Z,5.30
2022-12-03T10:45:26.587Z,5.30
2022-12-03T10:48:24.635Z,5.30
2022-12-03T10:51:01.223Z,5.20
2022-12-03T10:53:34.053Z,5.10
2022-12-03T10:56:08.021Z,5.20
2022-12-03T10:58:38.719Z,5.10
2022-12-03T11:01:24.592Z,5.00
2022-12-03T11:03:53.313Z,5.00
2022-12-03T11:06:22.458Z,5.10
2022-12-03T11:08:58.359Z,5.10
2022-12-03T11:11:30.173Z,5.20
2022-12-03T11:13:59.913Z,5.10
2022-12-03T11:20:03.012Z,5.20
2022-12-03T11:22:44.435Z,5.20
2022-12-03T11:25:53.264Z,5.20
2022-12-03T11:28:33.428Z,5.20
2022-12-03T11:31:08.909Z,5.30
2022-12-03T11:33:39.662Z,5.40
2022-12-03T11:36:12.199Z,5.50
2022-12-03T11:38:52.909Z,5.50
2022-12-03T11:41:39.883Z,5.50
2022-12-03T11:44:31.385Z,5.50
2022-12-03T11:47:06.748Z,5.50
2022-12-03T11:49:46.100Z,5.50
2022-12-03T11:52:24.745Z,5.50
2022-12-03T11:55:03.463Z,5.40
2022-12-03T11:57:37.540Z,5.40
2022-12-03T12:01:06.235Z,5.40
2022-12-03T12:03:47.387Z,5.40
2022-12-03T12:06:23.154Z,5.40
2022-12-03T12:08:59.466Z,5.40
2022-12-03T12:11:35.826Z,5.40
2022-12-03T12:14:09.949Z,5.40
2022-12-03T12:17:02.421Z,5.40
2022-12-03T12:19:42.343Z,5.30
2022-12-03T12:22:34.259Z,5.40
2022-12-03T12:25:54.404Z,5.40
2022-12-03T12:28:21.056Z,5.40
2022-12-03T12:30:47.517Z,5.40
2022-12-03T12:33:22.367Z,5.40
2022-12-03T12:35:49.229Z,5.40
2022-12-03T12:38:20.328Z,5.40
2022-12-03T12:40:49.554Z,5.40
2022-12-03T12:43:28.744Z,5.40
2022-12-03T12:46:13.470Z,5.50
2022-12-03T12:48:55.200Z,5.40
2022-12-03T12:51:24.466Z,5.50
2022-12-03T12:53:52.753Z,5.50
2022-12-03T12:56:31.251Z,5.50
2022-12-03T12:59:18.375Z,5.50
2022-12-03T13:01:47.742Z,5.50
2022-12-03T13:04:18.959Z,5.50
2022-12-03T13:06:48.604Z,5.50
2022-12-03T13:09:21.408Z,5.50
2022-12-03T13:11:57.773Z,5.40
2022-12-03T13:14:35.836Z,5.40
2022-12-03T13:17:15.104Z,5.40
2022-12-03T13:19:47.571Z,5.40
2022-12-03T13:22:20.404Z,5.40
2022-12-03T13:24:50.762Z,5.40
2022-12-03T13:27:29.227Z,5.40
2022-12-03T13:30:18.284Z,5.40
2022-12-03T13:32:44.832Z,5.40
2022-12-03T13:35:35.197Z,5.30
2022-12-03T13:38:09.724Z,5.30
2022-12-03T13:40:37.234Z,5.40
2022-12-03T13:43:11.319Z,5.40
2022-12-03T13:45:41.011Z,5.40
2022-12-03T13:48:34.342Z,5.30
2022-12-03T13:51:25.372Z,5.30
2022-12-03T13:53:53.289Z,5.40
2022-12-03T13:56:37.713Z,5.40
2022-12-03T13:59:04.171Z,5.40
2022-12-03T14:01:30.722Z,5.30
2022-12-03T14:03:57.247Z,5.30
2022-12-03T14:06:23.723Z,5.40
2022-12-03T14:08:50.716Z,5.40
2022-12-03T14:11:35.369Z,5.40
2022-12-03T14:14:01.863Z,5.40
2022-12-03T14:16:28.517Z,5.30
2022-12-03T14:18:55.024Z,5.30
2022-12-03T14:21:21.495Z,5.30
2022-12-03T14:23:48.056Z,5.30
2022-12-03T14:26:14.625Z,5.20
2022-12-03T14:28:41.140Z,5.20
2022-12-03T14:31:07.705Z,5.30
2022-12-03T14:33:34.184Z,5.20
2022-12-03T14:36:00.637Z,5.20
2022-12-03T14:38:27.100Z,5.20
2022-12-03T14:40:53.551Z,5.20
2022-12-03T14:43:20.022Z,5.10
2022-12-03T14:45:46.523Z,5.10
2022-12-03T14:48:13.052Z,5.00
2022-12-03T14:50:39.518Z,5.10
2022-12-03T14:53:05.969Z,5.10
2022-12-03T14:55:32.473Z,5.10
2022-12-03T14:57:58.928Z,5.00
2022-12-03T15:00:25.493Z,5.00
2022-12-03T15:02:52.029Z,5.00
2022-12-03T15:05:26.449Z,5.00
2022-12-03T15:07:55.007Z,5.00
2022-12-03T15:10:21.533Z,5.00
2022-12-03T15:12:47.996Z,5.00
2022-12-03T15:15:14.533Z,5.00
2022-12-03T15:17:41.105Z,5.00
2022-12-03T15:20:08.567Z,5.00
2022-12-03T15:22:35.022Z,4.90
2022-12-03T15:25:02.707Z,4.90
2022-12-03T15:27:29.223Z,4.90
2022-12-03T15:29:55.958Z,5.00
2022-12-03T15:32:22.644Z,5.00
2022-12-03T15:34:50.593Z,5.00
2022-12-03T15:37:17.646Z,5.00
2022-12-03T15:39:52.795Z,5.00
2022-12-03T15:42:19.289Z,5.00
2022-12-03T15:44:45.754Z,5.00
2022-12-03T15:47:12.193Z,5.00
2022-12-03T15:49:38.650Z,5.00
2022-12-03T15:52:05.253Z,5.00
2022-12-03T15:54:31.702Z,4.90
2022-12-03T15:56:58.140Z,4.90
2022-12-03T15:59:24.971Z,4.80
2022-12-03T16:01:51.537Z,4.90
2022-12-03T16:04:18.028Z,4.90
2022-12-03T16:06:44.497Z,4.90
2022-12-03T16:09:10.971Z,4.90
2022-12-03T16:11:37.418Z,4.90
2022-12-03T16:14:03.937Z,4.90
2022-12-03T16:16:30.494Z,4.90
2022-12-03T16:18:57.095Z,4.90
2022-12-03T16:21:27.102Z,4.80
2022-12-03T16:23:55.105Z,4.80
2022-12-03T16:26:22.293Z,4.90
2022-12-03T16:28:48.736Z,4.90
2022-12-03T16:31:15.281Z,4.90
2022-12-03T16:33:41.754Z,4.90
2022-12-03T16:36:09.006Z,4.90
2022-12-03T16:38:35.562Z,4.90
2022-12-03T16:41:02.433Z,4.90
2022-12-03T16:43:28.879Z,4.90
2022-12-03T16:45:55.352Z,4.90
2022-12-03T16:48:22.591Z,4.90
2022-12-03T16:50:49.032Z,4.90
2022-12-03T16:53:15.546Z,4.80
2022-12-03T16:55:42.032Z,4.90
2022-12-03T16:58:08.500Z,4.80
2022-12-03T17:00:34.992Z,4.80
2022-12-03T17:03:01.612Z,4.80
2022-12-03T17:05:28.144Z,4.90
2022-12-03T17:07:54.691Z,4.90
2022-12-03T17:10:21.283Z,4.90
2022-12-03T17:13:08.682Z,4.90
2022-12-03T17:15:36.448Z,4.90
2022-12-03T17:18:03.490Z,4.90
2022-12-03T17:20:31.137Z,4.80
2022-12-03T17:22:58.775Z,4.80
2022-12-03T17:25:25.988Z,4.90
2022-12-03T17:27:52.472Z,4.90
2022-12-03T17:30:19.038Z,4.90
2022-12-03T17:32:45.553Z,4.90
2022-12-03T17:35:12.562Z,4.80
2022-12-03T17:37:39.108Z,4.90
2022-12-03T17:40:08.684Z,4.90
2022-12-03T17:42:35.169Z,4.90
2022-12-03T17:45:01.629Z,4.90
2022-12-03T17:47:28.110Z,4.80
2022-12-03T17:49:54.743Z,4.80
2022-12-03T17:52:21.716Z,4.90
2022-12-03T17:57:44.717Z,4.90
2022-12-03T18:00:12.199Z,4.80
2022-12-03T18:02:38.753Z,4.80
2022-12-03T18:05:05.532Z,4.80
2022-12-03T18:07:32.066Z,4.80
2022-12-03T18:09:58.677Z,4.90
2022-12-03T18:12:25.409Z,4.90
2022-12-03T18:14:51.861Z,4.90
2022-12-03T18:17:18.352Z,4.90
2022-12-03T18:19:44.796Z,4.90
2022-12-03T18:22:11.942Z,4.80
2022-12-03T18:24:38.544Z,4.80
2022-12-03T18:27:05.257Z,4.90
2022-12-03T18:29:31.808Z,4.80
2022-12-03T18:31:58.392Z,4.90
2022-12-03T18:34:24.901Z,4.90
2022-12-03T18:36:51.383Z,4.90
2022-12-03T18:39:35.340Z,4.90
2022-12-03T18:42:13.931Z,4.90
2022-12-03T18:44:43.780Z,4.90
2022-12-03T18:47:19.080Z,4.80
2022-12-03T18:49:46.125Z,4.80
2022-12-03T18:52:20.450Z,4.80
2022-12-03T18:54:47.134Z,4.80
2022-12-03T18:57:14.157Z,4.80
2022-12-03T18:59:40.787Z,4.90
2022-12-03T19:02:46.088Z,4.90
2022-12-03T19:05:28.814Z,4.80
2022-12-03T19:07:55.904Z,4.80
2022-12-03T19:10:23.951Z,4.80
2022-12-03T19:12:50.496Z,4.80
2022-12-03T19:15:17.197Z,4.80
2022-12-03T19:17:48.816Z,4.80
2022-12-03T19:20:15.345Z,4.80
2022-12-03T19:22:41.908Z,4.80
2022-12-03T19:25:08.722Z,4.80
2022-12-03T19:27:35.193Z,4.80
2022-12-03T19:30:01.652Z,4.80
2022-12-03T19:32:28.105Z,4.80
2022-12-03T19:34:54.578Z,4.80
2022-12-03T19:37:21.045Z,4.80
2022-12-03T19:39:47.526Z,4.90
2022-12-03T19:42:14.005Z,4.80
2022-12-03T19:44:40.464Z,4.80
2022-12-03T19:47:06.938Z,4.90
2022-12-03T19:49:33.506Z,4.90
2022-12-03T19:51:59.970Z,4.90
2022-12-03T19:54:26.434Z,4.90
2022-12-03T19:56:52.896Z,4.90
2022-12-03T19:59:19.364Z,4.90
2022-12-03T20:01:46.065Z,4.90
2022-12-03T20:04:13.182Z,4.90
2022-12-03T20:06:39.951Z,4.90
2022-12-03T20:09:16.877Z,4.90
2022-12-03T20:11:45.020Z,5.00
2022-12-03T20:14:15.074Z,4.90
2022-12-03T20:16:42.842Z,4.80
2022-12-03T20:19:13.960Z,4.70
2022-12-03T20:21:41.441Z,4.70
2022-12-03T20:24:12.969Z,4.80
2022-12-03T20:26:40.360Z,4.90
2022-12-03T20:29:06.805Z,4.90
2022-12-03T20:31:33.316Z,4.90
2022-12-03T20:34:02.091Z,4.90
2022-12-03T20:36:31.200Z,5.00
2022-12-03T20:39:01.321Z,4.90
2022-12-03T20:41:28.294Z,4.90
2022-12-03T20:43:55.201Z,5.00
2022-12-03T20:46:26.275Z,5.00
2022-12-03T20:48:53.464Z,4.90
2022-12-03T20:51:23.535Z,5.00
2022-12-03T20:53:50.483Z,5.00
2022-12-03T20:56:25.233Z,5.00
2022-12-03T20:58:52.805Z,4.90
2022-12-03T21:01:22.891Z,4.90
2022-12-03T21:03:51.649Z,4.90
2022-12-03T21:06:19.314Z,4.90
2022-12-03T21:08:46.110Z,4.90
2022-12-03T21:11:17.465Z,5.00
2022-12-03T21:13:45.393Z,5.00
2022-12-03T21:16:17.562Z,5.00
2022-12-03T21:18:44.799Z,5.00
2022-12-03T21:21:14.637Z,5.00
2022-12-03T21:23:42.004Z,5.00
2022-12-03T21:26:19.492Z,4.90
2022-12-03T21:28:48.609Z,4.80
2022-12-03T21:31:24.546Z,4.70
2022-12-03T21:33:54.021Z,4.80
2022-12-03T21:36:20.507Z,4.80
2022-12-03T21:38:47.555Z,4.90
2022-12-03T21:41:16.072Z,4.90
2022-12-03T21:43:43.758Z,4.90
2022-12-03T21:47:09.877Z,4.90
2022-12-03T21:49:39.584Z,4.90
2022-12-03T21:52:06.059Z,4.80
2022-12-03T21:54:32.505Z,4.80
2022-12-03T21:56:58.975Z,4.90
2022-12-03T21:59:25.422Z,4.90
2022-12-03T22:01:52.068Z,4.90
2022-12-03T22:04:18.673Z,4.80
2022-12-03T22:06:45.127Z,4.80
2022-12-03T22:09:11.597Z,4.90
2022-12-03T22:11:38.080Z,4.90
2022-12-03T22:14:06.100Z,4.90
2022-12-03T22:16:32.676Z,4.80
2022-12-03T22:18:59.238Z,4.90
2022-12-03T22:21:25.703Z,4.90
2022-12-03T22:23:52.152Z,4.90
2022-12-03T22:26:18.730Z,4.90
2022-12-03T22:28:48.249Z,4.80
2022-12-03T22:31:16.740Z,4.90
2022-12-03T22:33:47.409Z,5.00
2022-12-03T22:36:21.178Z,5.00
2022-12-03T22:38:50.081Z,5.00
2022-12-03T22:41:17.450Z,5.00
2022-12-03T22:43:45.446Z,4.90
2022-12-03T22:46:12.519Z,4.90
2022-12-03T22:48:41.968Z,4.80
2022-12-03T22:51:21.416Z,4.90
2022-12-03T22:53:52.882Z,4.80
2022-12-03T22:56:19.375Z,4.80
2022-12-03T22:58:45.835Z,4.90
2022-12-03T23:01:23.684Z,4.90
2022-12-03T23:03:50.754Z,4.90
2022-12-03T23:06:18.941Z,4.80
2022-12-03T23:08:46.306Z,4.90
2022-12-03T23:11:12.974Z,4.90
2022-12-03T23:13:40.085Z,4.90
2022-12-03T23:16:07.383Z,4.90
2022-12-03T23:18:33.832Z,4.90
2022-12-03T23:21:00.433Z,4.90
2022-12-03T23:23:27.742Z,4.90
2022-12-03T23:26:07.192Z,4.90
2022-12-03T23:28:36.952Z,4.90
2022-12-03T23:31:05.098Z,4.90
2022-12-03T23:33:37.948Z,4.90
2022-12-03T23:36:09.375Z,5.00
2022-12-03T23:38:35.873Z,4.90
2022-12-03T23:41:16.390Z,4.90
2022-12-03T23:43:42.979Z,4.90
2022-12-03T23:46:20.403Z,4.90
2022-12-03T23:48:47.055Z,4.90
2022-12-03T23:51:18.433Z,4.90
2022-12-03T23:53:45.371Z,4.90
2022-12-03T23:56:19.072Z,4.90
2022-12-03T23:58:46.312Z,4.90
